createdAt,value
2022-11-20T16:49:19.609Z,-0.80
2022-11-20T16:51:47.170Z,4.60
2022-11-20T16:54:19.463Z,4.50
2022-11-20T16:56:48.728Z,4.50
2022-11-20T16:59:16.510Z,4.50
2022-11-20T17:01:44.204Z,4.50
2022-11-20T17:04:11.974Z,4.50
2022-11-20T17:06:42.829Z,4.50
2022-11-20T17:09:14.162Z,4.50
2022-11-20T17:11:41.416Z,4.50
2022-11-20T17:14:10.433Z,4.50
2022-11-20T17:16:38.796Z,4.50
2022-11-20T17:19:06.471Z,4.50
2022-11-20T17:21:38.027Z,4.60
2022-11-20T17:24:08.371Z,4.60
2022-11-20T17:26:37.394Z,4.60
2022-11-20T17:29:11.713Z,4.60
2022-11-20T17:31:39.798Z,4.60
2022-11-20T17:34:09.238Z,4.60
2022-11-20T17:36:39.594Z,4.70
2022-11-20T17:39:21.154Z,4.70
2022-11-20T17:42:12.088Z,4.70
2022-11-20T17:44:41.000Z,4.80
2022-11-20T17:47:08.209Z,4.80
2022-11-20T17:49:35.710Z,4.80
2022-11-20T17:52:04.819Z,4.80
2022-11-20T17:54:33.274Z,4.90
2022-11-20T17:57:19.214Z,4.90
2022-11-20T17:59:46.713Z,4.90
2022-11-20T18:02:14.503Z,4.90
2022-11-20T18:04:43.085Z,5.00
2022-11-20T18:07:10.733Z,5.00
2022-11-20T18:09:38.037Z,5.00
2022-11-20T18:12:06.271Z,5.00
2022-11-20T18:14:36.793Z,5.00
2022-11-20T18:17:14.885Z,5.00
2022-11-20T18:20:00.981Z,5.00
2022-11-20T18:22:34.013Z,5.00
2022-11-20T18:25:04.953Z,5.00
2022-11-20T18:27:35.564Z,5.10
2022-11-20T18:30:04.078Z,5.10
2022-11-20T18:32:32.688Z,5.10
2022-11-20T18:35:04.702Z,5.10
2022-11-20T18:37:34.388Z,5.10
2022-11-20T18:40:02.747Z,5.20
2022-11-20T18:42:55.611Z,5.20
2022-11-20T18:45:24.030Z,5.20
2022-11-20T18:47:53.602Z,5.20
2022-11-20T18:50:20.834Z,5.20
2022-11-20T18:52:48.502Z,5.20
2022-11-20T18:55:16.110Z,5.20
2022-11-20T18:57:43.556Z,5.30
2022-11-20T19:00:11.545Z,5.30
2022-11-20T19:02:42.631Z,5.30
2022-11-20T19:05:17.148Z,5.30
2022-11-20T19:07:44.622Z,5.30
2022-11-20T19:10:11.928Z,5.30
2022-11-20T19:12:39.025Z,5.30
2022-11-20T19:15:06.677Z,5.30
2022-11-20T19:17:34.992Z,5.30
2022-11-20T19:20:05.073Z,5.30
2022-11-20T19:22:33.493Z,5.30
2022-11-20T19:25:00.785Z,5.30
2022-11-20T19:27:28.382Z,5.30
2022-11-20T19:30:03.625Z,5.20
2022-11-20T19:32:33.311Z,5.30
2022-11-20T19:35:02.461Z,5.20
2022-11-20T19:37:33.351Z,5.20
2022-11-20T19:40:04.459Z,5.20
2022-11-20T19:42:32.316Z,5.20
2022-11-20T19:45:00.670Z,5.30
2022-11-20T19:50:22.110Z,5.20
2022-11-20T19:52:52.015Z,5.20
2022-11-20T19:55:23.222Z,5.20
2022-11-20T19:57:51.815Z,5.20
2022-11-20T20:00:26.609Z,5.20
2022-11-20T20:02:56.195Z,5.20
2022-11-20T20:05:23.774Z,5.20
2022-11-20T20:07:51.166Z,5.10
2022-11-20T20:10:18.522Z,5.10
2022-11-20T20:12:45.899Z,5.10
2022-11-20T20:15:13.134Z,5.10
2022-11-20T20:17:40.381Z,5.10
2022-11-20T20:20:08.336Z,5.10
2022-11-20T20:22:35.422Z,5.10
2022-11-20T20:25:04.047Z,5.10
2022-11-20T20:27:36.971Z,5.10
2022-11-20T20:30:06.312Z,5.10
2022-11-20T20:32:36.264Z,5.10
2022-11-20T20:35:07.514Z,5.10
2022-11-20T20:37:34.938Z,5.00
2022-11-20T20:40:04.084Z,5.00
2022-11-20T20:42:33.600Z,5.00
2022-11-20T20:45:06.769Z,5.00
2022-11-20T20:47:39.551Z,5.00
2022-11-20T20:50:09.710Z,5.00
2022-11-20T20:52:37.243Z,5.00
2022-11-20T20:55:06.495Z,5.00
2022-11-20T20:57:35.041Z,5.00
2022-11-20T21:00:06.287Z,5.00
2022-11-20T21:02:35.042Z,5.10
2022-11-20T21:05:08.391Z,5.10
2022-11-20T21:10:43.763Z,5.10
2022-11-20T21:13:11.406Z,5.10
2022-11-20T21:15:40.119Z,5.10
2022-11-20T21:18:07.557Z,5.10
2022-11-20T21:20:53.235Z,5.10
2022-11-20T21:23:20.674Z,5.10
2022-11-20T21:25:47.763Z,5.10
2022-11-20T21:28:18.175Z,5.10
2022-11-20T21:30:46.162Z,5.10
2022-11-20T21:33:14.218Z,5.10
2022-11-20T21:35:42.024Z,5.10
2022-11-20T21:38:10.020Z,5.10
2022-11-20T21:40:37.325Z,5.10
2022-11-20T21:43:04.811Z,5.10
2022-11-20T21:45:34.295Z,5.10
2022-11-20T21:48:05.130Z,5.10
2022-11-20T21:50:35.665Z,5.10
2022-11-20T21:53:04.412Z,5.10
2022-11-20T21:55:33.992Z,5.10
2022-11-20T21:58:04.375Z,5.10
2022-11-20T22:00:36.369Z,5.10
2022-11-20T22:03:05.821Z,5.10
2022-11-20T22:05:35.648Z,5.10
2022-11-20T22:08:06.148Z,5.10
2022-11-20T22:10:34.817Z,5.10
2022-11-20T22:13:21.225Z,5.10
2022-11-20T22:16:01.484Z,5.10
2022-11-20T22:18:38.635Z,5.10
2022-11-20T22:21:12.974Z,5.10
2022-11-20T22:23:44.344Z,5.10
2022-11-20T22:26:14.835Z,5.10
2022-11-20T22:28:42.869Z,5.10
2022-11-20T22:31:19.156Z,5.10
2022-11-20T22:33:47.568Z,5.10
2022-11-20T22:36:19.217Z,5.10
2022-11-20T22:38:47.586Z,5.10
2022-11-20T22:41:17.949Z,5.10
2022-11-20T22:43:47.564Z,5.00
2022-11-20T22:46:17.648Z,5.00
2022-11-20T22:48:53.040Z,5.00
2022-11-20T22:51:22.959Z,5.00
2022-11-20T22:53:51.140Z,5.10
2022-11-20T22:56:19.697Z,5.10
2022-11-20T22:58:50.793Z,5.10
2022-11-20T23:01:23.343Z,5.10
2022-11-20T23:03:56.238Z,5.10
2022-11-20T23:06:23.840Z,5.10
2022-11-20T23:08:52.147Z,5.10
2022-11-20T23:11:21.754Z,5.00
2022-11-20T23:14:03.911Z,5.00
2022-11-20T23:16:36.854Z,5.00
2022-11-20T23:19:11.733Z,5.10
2022-11-20T23:21:44.480Z,5.10
2022-11-20T23:24:12.504Z,5.10
2022-11-20T23:26:41.475Z,5.10
2022-11-20T23:29:09.138Z,5.10
2022-11-20T23:31:36.749Z,5.10
2022-11-20T23:34:04.947Z,5.10
2022-11-20T23:36:35.724Z,5.10
2022-11-20T23:39:03.861Z,5.10
2022-11-20T23:41:32.140Z,5.10
2022-11-20T23:44:04.373Z,5.10
2022-11-20T23:46:32.688Z,5.00
2022-11-20T23:48:59.818Z,5.10
2022-11-20T23:51:27.142Z,5.00
2022-11-20T23:53:54.857Z,5.00
2022-11-20T23:56:22.185Z,5.00
2022-11-20T23:58:53.267Z,4.90
